createdAt,value
2022-08-19T00:00:00.083Z,12.67
2022-08-19T00:01:01.811Z,13.03
2022-08-19T00:02:07.264Z,14.50
2022-08-19T00:03:09.061Z,12.53
2022-08-19T00:04:16.006Z,12.23
2022-08-19T00:05:18.757Z,11.70
2022-08-19T00:06:21.295Z,11.87
2022-08-19T00:07:22.934Z,10.70
2022-08-19T00:08:25.683Z,13.70
2022-08-19T00:09:28.543Z,13.37
2022-08-19T00:10:31.296Z,14.70
2022-08-19T00:11:33.072Z,14.73
2022-08-19T00:12:37.292Z,12.00
2022-08-19T00:13:50.849Z,14.43
2022-08-19T00:14:54.919Z,15.00
2022-08-19T00:15:56.873Z,16.83
2022-08-19T00:16:59.612Z,18.83
2022-08-19T00:18:01.204Z,12.23
2022-08-19T00:19:03.885Z,14.93
2022-08-19T00:20:08.669Z,16.03
2022-08-19T00:21:11.264Z,12.10
2022-08-19T00:22:12.881Z,12.30
2022-08-19T00:23:15.980Z,14.60
2022-08-19T00:24:17.652Z,14.97
2022-08-19T00:25:30.240Z,16.53
2022-08-19T00:26:32.367Z,14.17
2022-08-19T00:27:35.566Z,12.97
2022-08-19T00:28:38.173Z,14.70
2022-08-19T00:29:40.115Z,12.47
2022-08-19T00:30:42.861Z,13.63
2022-08-19T00:31:45.852Z,14.63
2022-08-19T00:32:48.827Z,12.93
2022-08-19T00:33:51.314Z,13.57
2022-08-19T00:34:54.252Z,16.90
2022-08-19T00:35:57.426Z,15.30
2022-08-19T00:37:00.540Z,21.27
2022-08-19T00:38:03.269Z,13.13
2022-08-19T00:39:05.047Z,18.90
2022-08-19T00:40:09.533Z,12.70
2022-08-19T00:41:13.374Z,15.77
2022-08-19T00:42:16.461Z,14.77
2022-08-19T00:43:20.933Z,13.13
2022-08-19T00:44:26.716Z,17.00
2022-08-19T00:45:32.649Z,13.03
2022-08-19T00:46:41.477Z,13.30
2022-08-19T00:47:43.594Z,14.70
2022-08-19T00:48:46.220Z,14.10
2022-08-19T00:49:52.461Z,15.70
2022-08-19T00:50:56.357Z,13.33
2022-08-19T00:52:05.128Z,14.30
2022-08-19T00:53:07.636Z,13.60
2022-08-19T00:54:11.082Z,15.70
2022-08-19T00:55:16.832Z,16.60
2022-08-19T00:56:19.740Z,16.23
2022-08-19T00:57:27.927Z,15.63
2022-08-19T00:58:34.239Z,13.53
2022-08-19T01:00:01.923Z,16.63
2022-08-19T01:01:02.508Z,17.33
2022-08-19T01:02:04.828Z,14.10
2022-08-19T01:03:09.707Z,14.03
2022-08-19T01:04:11.479Z,16.13
2022-08-19T01:05:19.368Z,16.43
2022-08-19T01:06:21.657Z,17.27
2022-08-19T01:07:25.821Z,17.70
2022-08-19T01:08:27.531Z,15.63
2022-08-19T01:09:30.571Z,16.70
2022-08-19T01:10:38.284Z,16.50
2022-08-19T01:11:45.699Z,17.67
2022-08-19T01:12:48.890Z,17.50
2022-08-19T01:13:53.728Z,18.37
2022-08-19T01:14:56.373Z,16.70
2022-08-19T01:16:02.237Z,19.23
2022-08-19T01:17:04.737Z,23.10
2022-08-19T01:18:11.568Z,21.70
2022-08-19T01:19:21.763Z,19.90
2022-08-19T01:20:25.853Z,18.43
2022-08-19T01:21:32.496Z,22.93
2022-08-19T01:22:39.708Z,19.70
2022-08-19T01:23:44.341Z,21.93
2022-08-19T01:24:49.624Z,36.83
2022-08-19T01:25:54.600Z,20.23
2022-08-19T01:26:57.553Z,21.13
2022-08-19T01:28:10.541Z,20.13
2022-08-19T01:29:14.775Z,23.13
2022-08-19T01:30:23.418Z,19.43
2022-08-19T01:31:30.312Z,19.80
2022-08-19T01:32:35.822Z,19.03
2022-08-19T01:33:37.508Z,20.50
2022-08-19T01:34:40.519Z,21.13
2022-08-19T01:35:42.626Z,19.83
2022-08-19T01:36:48.118Z,19.63
2022-08-19T01:37:53.734Z,20.13
2022-08-19T01:38:56.992Z,21.17
2022-08-19T01:39:58.758Z,22.37
2022-08-19T01:41:01.422Z,18.87
2022-08-19T01:42:13.327Z,23.30
2022-08-19T01:43:16.032Z,18.00
2022-08-19T01:44:21.258Z,17.90
2022-08-19T01:45:25.120Z,20.70
2022-08-19T01:46:29.395Z,21.47
2022-08-19T01:47:31.010Z,23.60
2022-08-19T01:48:39.401Z,21.03
2022-08-19T01:49:41.176Z,20.67
2022-08-19T01:50:44.508Z,16.93
2022-08-19T01:51:47.051Z,22.83
2022-08-19T01:52:49.937Z,19.27
2022-08-19T01:54:06.707Z,17.67
2022-08-19T01:55:12.207Z,21.00
2022-08-19T01:56:14.876Z,19.47
2022-08-19T01:57:16.840Z,20.97
2022-08-19T01:58:24.121Z,21.63
2022-08-19T01:59:25.859Z,17.90
2022-08-19T02:00:31.673Z,19.10
2022-08-19T02:01:33.558Z,20.37
2022-08-19T02:02:36.260Z,24.03
2022-08-19T02:03:37.936Z,20.90
2022-08-19T02:04:40.612Z,19.50
2022-08-19T02:05:43.203Z,25.23
2022-08-19T02:06:45.760Z,20.30
2022-08-19T02:07:47.485Z,24.00
2022-08-19T02:08:50.135Z,18.53
2022-08-19T02:09:55.823Z,18.13
2022-08-19T02:10:59.014Z,21.50
2022-08-19T02:12:00.867Z,18.30
2022-08-19T02:13:04.104Z,17.07
2022-08-19T02:14:07.889Z,18.80
2022-08-19T02:15:11.325Z,19.37
2022-08-19T02:16:12.903Z,27.13
2022-08-19T02:17:15.749Z,25.60
2022-08-19T02:18:17.883Z,25.90
2022-08-19T02:19:20.445Z,27.67
2022-08-19T02:20:23.396Z,28.27
2022-08-19T02:21:26.404Z,26.50
2022-08-19T02:22:28.265Z,28.70
2022-08-19T02:23:33.331Z,24.03
2022-08-19T02:24:35.027Z,26.47
2022-08-19T02:25:39.407Z,28.43
2022-08-19T02:26:41.095Z,28.17
2022-08-19T02:27:44.668Z,35.50
2022-08-19T02:28:46.991Z,29.83
2022-08-19T02:29:51.016Z,25.73
2022-08-19T02:30:52.926Z,32.07
2022-08-19T02:31:55.551Z,29.30
2022-08-19T02:32:57.553Z,30.77
2022-08-19T02:34:00.985Z,32.60
2022-08-19T02:35:04.327Z,27.90
2022-08-19T02:36:16.660Z,30.43
2022-08-19T02:37:41.313Z,28.70
2022-08-19T02:38:47.677Z,29.83
2022-08-19T02:39:57.294Z,31.27
2022-08-19T02:41:05.751Z,27.47
2022-08-19T02:42:08.750Z,32.27
2022-08-19T02:43:10.640Z,30.20
2022-08-19T02:44:29.882Z,34.43
2022-08-19T02:45:40.508Z,32.30
2022-08-19T02:46:45.646Z,29.07
2022-08-19T02:47:47.375Z,27.83
2022-08-19T02:48:50.434Z,36.70
2022-08-19T02:49:52.086Z,32.07
2022-08-19T02:50:56.693Z,28.53
2022-08-19T02:51:58.390Z,28.43
2022-08-19T02:53:01.086Z,30.30
2022-08-19T02:54:05.492Z,30.30
2022-08-19T02:55:08.361Z,28.07
2022-08-19T02:56:12.277Z,28.97
2022-08-19T02:57:14.063Z,29.93
2022-08-19T02:58:17.819Z,31.07
2022-08-19T02:59:22.952Z,37.00
2022-08-19T03:00:25.973Z,36.60
2022-08-19T03:01:31.297Z,32.17
2022-08-19T03:02:34.122Z,29.83
2022-08-19T03:03:35.704Z,37.93
2022-08-19T03:04:38.353Z,31.60
2022-08-19T03:05:48.263Z,35.00
2022-08-19T03:07:10.724Z,29.07
2022-08-19T03:08:22.873Z,28.00
2022-08-19T03:09:24.502Z,31.33
2022-08-19T03:10:27.183Z,38.80
2022-08-19T03:11:31.835Z,31.13
2022-08-19T03:12:38.110Z,33.57
2022-08-19T03:13:39.691Z,36.73
2022-08-19T03:14:42.324Z,33.60
2022-08-19T03:15:46.898Z,33.80
2022-08-19T03:16:53.691Z,42.80
2022-08-19T03:17:55.323Z,37.50
2022-08-19T03:19:01.021Z,36.50
2022-08-19T03:20:04.117Z,45.70
2022-08-19T03:21:12.520Z,35.30
2022-08-19T03:22:15.020Z,40.40
2022-08-19T03:23:18.758Z,39.33
2022-08-19T03:24:21.157Z,36.73
2022-08-19T03:25:23.818Z,43.13
2022-08-19T03:26:25.636Z,39.70
2022-08-19T03:27:34.890Z,41.73
2022-08-19T03:28:37.632Z,39.20
2022-08-19T03:29:43.352Z,40.20
2022-08-19T03:30:57.587Z,40.60
2022-08-19T03:32:01.447Z,42.07
2022-08-19T03:33:04.301Z,41.40
2022-08-19T03:34:08.212Z,36.20
2022-08-19T03:35:17.896Z,43.53
2022-08-19T03:36:24.851Z,40.27
2022-08-19T03:37:29.434Z,37.63
2022-08-19T03:38:33.086Z,41.00
2022-08-19T03:39:37.613Z,46.57
2022-08-19T03:40:43.860Z,40.40
2022-08-19T03:42:31.916Z,40.90
2022-08-19T03:43:15.859Z,40.90
2022-08-19T03:44:21.466Z,41.93
2022-08-19T03:45:24.110Z,42.63
2022-08-19T03:46:28.277Z,39.60
2022-08-19T03:47:31.361Z,40.23
2022-08-19T03:48:34.140Z,41.40
2022-08-19T03:49:37.469Z,43.10
2022-08-19T03:50:39.773Z,37.30
2022-08-19T03:51:43.940Z,39.90
2022-08-19T03:52:49.421Z,42.57
2022-08-19T03:53:52.909Z,44.27
2022-08-19T03:54:55.580Z,40.80
2022-08-19T03:55:58.897Z,43.07
2022-08-19T03:57:01.560Z,42.30
2022-08-19T03:58:03.195Z,44.53
2022-08-19T03:59:09.160Z,49.07
2022-08-19T04:00:13.805Z,42.20
2022-08-19T04:01:19.555Z,44.43
2022-08-19T04:02:22.358Z,40.57
2022-08-19T04:03:23.987Z,43.60
2022-08-19T04:04:29.270Z,43.00
2022-08-19T04:05:31.108Z,46.07
2022-08-19T04:06:36.005Z,51.20
2022-08-19T04:07:41.694Z,45.53
2022-08-19T04:08:46.355Z,49.37
2022-08-19T04:09:48.294Z,46.17
2022-08-19T04:10:51.409Z,47.27
2022-08-19T04:11:56.500Z,45.53
2022-08-19T04:12:59.418Z,46.80
2022-08-19T04:14:01.767Z,45.93
2022-08-19T04:15:09.516Z,50.50
2022-08-19T04:16:11.940Z,46.07
2022-08-19T04:17:14.970Z,44.40
2022-08-19T04:18:16.648Z,49.93
2022-08-19T04:19:20.699Z,49.90
2022-08-19T04:20:22.520Z,46.80
2022-08-19T04:21:27.345Z,47.50
2022-08-19T04:22:29.031Z,51.00
2022-08-19T04:23:32.082Z,48.53
2022-08-19T04:24:35.066Z,53.47
2022-08-19T04:25:39.522Z,50.93
2022-08-19T04:26:41.932Z,49.77
2022-08-19T04:27:47.191Z,51.00
2022-08-19T04:28:49.995Z,52.73
2022-08-19T04:29:53.383Z,52.73
2022-08-19T04:30:56.792Z,53.87
2022-08-19T04:32:00.475Z,59.63
2022-08-19T04:33:12.724Z,57.30
2022-08-19T04:34:18.450Z,58.27
2022-08-19T04:35:23.137Z,51.77
2022-08-19T04:36:29.826Z,56.70
2022-08-19T04:37:35.078Z,58.83
2022-08-19T04:38:38.204Z,55.40
2022-08-19T04:40:02.487Z,55.47
2022-08-19T04:41:23.966Z,50.73
2022-08-19T04:42:40.895Z,54.40
2022-08-19T04:43:47.354Z,53.40
2022-08-19T04:44:49.619Z,47.80
2022-08-19T04:45:56.935Z,56.67
2022-08-19T04:47:11.435Z,51.90
2022-08-19T04:48:27.163Z,52.70
2022-08-19T04:49:29.845Z,57.33
2022-08-19T04:50:32.473Z,53.87
2022-08-19T04:51:35.824Z,58.67
2022-08-19T04:52:43.538Z,57.27
2022-08-19T04:53:46.905Z,60.47
2022-08-19T04:54:49.052Z,60.70
2022-08-19T04:55:52.411Z,61.67
2022-08-19T04:56:54.543Z,56.27
2022-08-19T04:57:57.193Z,55.87
2022-08-19T04:59:03.974Z,53.87
2022-08-19T05:00:07.866Z,56.23
2022-08-19T05:01:12.835Z,60.00
2022-08-19T05:02:16.885Z,57.63
2022-08-19T05:03:19.076Z,63.73
2022-08-19T05:04:22.062Z,62.17
2022-08-19T05:05:26.371Z,54.80
2022-08-19T05:06:33.667Z,57.40
2022-08-19T05:07:36.060Z,70.10
2022-08-19T05:08:42.952Z,58.17
2022-08-19T05:09:57.955Z,56.60
2022-08-19T05:11:01.043Z,64.67
2022-08-19T05:12:05.068Z,62.87
2022-08-19T05:13:06.664Z,58.73
2022-08-19T05:14:10.755Z,66.97
2022-08-19T05:15:12.597Z,61.77
2022-08-19T05:16:16.883Z,71.43
2022-08-19T05:17:28.423Z,56.27
2022-08-19T05:18:49.360Z,67.43
2022-08-19T05:20:09.559Z,63.37
2022-08-19T05:21:31.550Z,58.73
2022-08-19T05:22:35.465Z,61.00
2022-08-19T05:23:38.119Z,65.33
2022-08-19T05:25:02.572Z,64.40
2022-08-19T05:26:05.306Z,57.17
2022-08-19T05:27:07.072Z,64.83
2022-08-19T05:28:09.625Z,62.10
2022-08-19T05:29:11.206Z,65.10
2022-08-19T05:30:14.678Z,69.73
2022-08-19T05:31:16.274Z,61.83
2022-08-19T05:32:18.918Z,79.10
2022-08-19T05:33:22.465Z,67.87
2022-08-19T05:34:27.035Z,70.10
2022-08-19T05:35:29.343Z,65.67
2022-08-19T05:36:40.845Z,67.87
2022-08-19T05:37:45.547Z,68.13
2022-08-19T05:38:48.390Z,69.13
2022-08-19T05:39:53.383Z,61.47
2022-08-19T05:40:55.371Z,60.23
2022-08-19T05:41:59.914Z,57.07
2022-08-19T05:43:01.625Z,58.90
2022-08-19T05:44:09.987Z,64.00
2022-08-19T05:45:12.865Z,73.83
2022-08-19T05:46:19.585Z,59.70
2022-08-19T05:47:30.283Z,73.90
2022-08-19T05:48:33.594Z,61.10
2022-08-19T05:49:37.738Z,60.97
2022-08-19T05:50:40.393Z,71.40
2022-08-19T05:51:43.904Z,68.30
2022-08-19T05:52:50.670Z,65.03
2022-08-19T05:53:53.907Z,63.60
2022-08-19T05:54:57.143Z,66.67
2022-08-19T05:55:59.032Z,68.33
2022-08-19T05:57:03.026Z,58.37
2022-08-19T05:58:04.856Z,64.67
2022-08-19T05:59:09.996Z,60.57
2022-08-19T06:00:13.256Z,58.67
2022-08-19T06:01:20.006Z,67.90
2022-08-19T06:02:21.887Z,55.93
2022-08-19T06:03:25.089Z,67.47
2022-08-19T06:04:28.143Z,61.70
2022-08-19T06:05:31.168Z,60.83
2022-08-19T06:06:35.065Z,67.00
2022-08-19T06:07:38.152Z,57.30
2022-08-19T06:08:40.667Z,54.43
2022-08-19T06:09:43.707Z,61.27
2022-08-19T06:11:15.116Z,63.83
2022-08-19T06:12:17.689Z,60.97
2022-08-19T06:13:20.982Z,68.93
2022-08-19T06:14:27.767Z,60.00
2022-08-19T06:15:30.148Z,56.23
2022-08-19T06:16:36.097Z,58.13
2022-08-19T06:17:39.195Z,59.27
2022-08-19T06:18:40.853Z,62.10
2022-08-19T06:19:44.821Z,89.33
2022-08-19T06:20:55.995Z,70.10
2022-08-19T06:22:00.932Z,60.53
2022-08-19T06:23:04.641Z,56.90
2022-08-19T06:24:08.623Z,53.30
2022-08-19T06:25:11.354Z,57.87
2022-08-19T06:26:14.338Z,50.10
2022-08-19T06:27:17.284Z,61.80
2022-08-19T06:28:19.202Z,55.57
2022-08-19T06:29:24.695Z,55.20
2022-08-19T06:30:26.477Z,53.93
2022-08-19T06:31:30.336Z,48.63
2022-08-19T06:32:32.633Z,53.73
2022-08-19T06:33:35.220Z,60.13
2022-08-19T06:34:38.121Z,56.60
2022-08-19T06:35:42.351Z,53.13
2022-08-19T06:36:47.786Z,60.93
2022-08-19T06:37:49.461Z,52.03
2022-08-19T06:38:52.070Z,51.60
2022-08-19T06:39:54.067Z,59.30
2022-08-19T06:41:02.603Z,54.03
2022-08-19T06:42:17.069Z,56.53
2022-08-19T06:43:19.411Z,56.47
2022-08-19T06:44:25.006Z,53.07
2022-08-19T06:45:34.793Z,57.63
2022-08-19T06:46:38.108Z,53.23
2022-08-19T06:47:44.762Z,56.90
2022-08-19T06:48:47.168Z,56.73
2022-08-19T06:49:49.745Z,53.30
2022-08-19T06:50:52.951Z,52.90
2022-08-19T06:51:57.685Z,56.83
2022-08-19T06:53:04.398Z,50.67
2022-08-19T06:54:07.433Z,50.83
2022-08-19T06:55:22.423Z,47.33
2022-08-19T06:56:31.953Z,48.93
2022-08-19T06:57:36.020Z,46.33
2022-08-19T06:58:37.642Z,52.33
2022-08-19T06:59:40.358Z,52.40
2022-08-19T07:00:42.012Z,50.70
2022-08-19T07:01:47.869Z,49.03
2022-08-19T07:02:56.169Z,51.50
2022-08-19T07:04:03.271Z,53.03
2022-08-19T07:05:07.683Z,54.73
2022-08-19T07:06:32.502Z,51.10
2022-08-19T07:07:36.608Z,48.90
2022-08-19T07:08:41.763Z,51.10
2022-08-19T07:09:52.174Z,48.40
2022-08-19T07:11:02.782Z,53.60
2022-08-19T07:12:14.371Z,56.47
2022-08-19T07:13:16.160Z,47.00
2022-08-19T07:14:21.204Z,48.93
2022-08-19T07:15:24.106Z,45.50
2022-08-19T07:16:29.364Z,44.67
2022-08-19T07:17:31.757Z,48.43
2022-08-19T07:18:38.288Z,47.33
2022-08-19T07:19:43.313Z,44.23
2022-08-19T07:20:45.716Z,46.00
2022-08-19T07:21:51.900Z,38.60
2022-08-19T07:22:54.157Z,38.43
2022-08-19T07:23:58.788Z,34.87
2022-08-19T07:25:01.381Z,39.33
2022-08-19T07:26:09.293Z,37.50
2022-08-19T07:27:13.826Z,33.77
2022-08-19T07:28:24.425Z,34.03
2022-08-19T07:29:29.077Z,36.40
2022-08-19T07:30:31.830Z,34.53
2022-08-19T07:31:37.715Z,35.80
2022-08-19T07:32:40.487Z,34.90
2022-08-19T07:33:43.892Z,35.03
2022-08-19T07:34:46.963Z,34.57
2022-08-19T07:35:48.560Z,34.40
2022-08-19T07:36:52.565Z,32.07
2022-08-19T07:37:54.399Z,37.33
2022-08-19T07:38:57.237Z,28.87
2022-08-19T07:39:59.860Z,30.97
2022-08-19T07:41:02.247Z,34.50
2022-08-19T07:42:09.772Z,30.70
2022-08-19T07:43:14.236Z,32.17
2022-08-19T07:44:22.008Z,28.80
2022-08-19T07:45:25.086Z,30.30
2022-08-19T07:46:31.998Z,30.53
2022-08-19T07:47:50.025Z,32.87
2022-08-19T07:48:54.061Z,34.57
2022-08-19T07:49:55.686Z,31.37
2022-08-19T07:51:02.716Z,31.70
2022-08-19T07:52:10.385Z,32.17
2022-08-19T07:53:13.276Z,33.60
2022-08-19T07:54:16.092Z,34.47
2022-08-19T07:55:41.446Z,36.63
2022-08-19T07:56:43.846Z,37.07
2022-08-19T07:57:45.649Z,46.57
2022-08-19T07:58:51.098Z,39.93
2022-08-19T07:59:52.781Z,42.90
2022-08-19T08:00:55.630Z,41.07
2022-08-19T08:02:00.479Z,38.60
2022-08-19T08:03:02.236Z,84.10
2022-08-19T08:04:22.682Z,45.10
2022-08-19T08:05:44.239Z,44.83
2022-08-19T08:07:14.438Z,50.53
2022-08-19T08:08:34.634Z,61.63
2022-08-19T08:09:41.127Z,56.57
2022-08-19T08:10:44.415Z,49.27
2022-08-19T08:12:02.004Z,57.03
2022-08-19T08:13:10.310Z,51.37
2022-08-19T08:14:29.504Z,52.70
2022-08-19T08:15:42.136Z,51.57
2022-08-19T08:16:46.992Z,51.70
2022-08-19T08:17:51.676Z,56.33
2022-08-19T08:18:53.479Z,61.87
2022-08-19T08:19:58.339Z,53.90
2022-08-19T08:21:00.051Z,55.90
2022-08-19T08:22:07.275Z,54.47
2022-08-19T08:23:25.904Z,59.00
2022-08-19T08:24:31.508Z,53.57
2022-08-19T08:25:42.034Z,67.23
2022-08-19T08:26:46.863Z,60.50
2022-08-19T08:27:53.883Z,67.20
2022-08-19T08:28:58.494Z,58.60
2022-08-19T08:30:03.036Z,62.50
2022-08-19T08:31:09.715Z,61.53
2022-08-19T08:32:14.202Z,66.20
2022-08-19T08:33:30.001Z,53.87
2022-08-19T08:34:37.920Z,55.20
2022-08-19T08:35:43.328Z,58.03
2022-08-19T08:36:47.063Z,53.73
2022-08-19T08:37:53.638Z,51.70
2022-08-19T08:40:00.086Z,49.23
2022-08-19T08:41:11.125Z,46.33
2022-08-19T08:42:21.596Z,48.00
2022-08-19T08:43:30.629Z,55.37
2022-08-19T08:44:51.545Z,52.30
2022-08-19T08:46:00.307Z,47.87
2022-08-19T08:47:07.893Z,56.37
2022-08-19T08:48:22.276Z,49.13
2022-08-19T08:49:35.411Z,47.10
2022-08-19T08:50:43.092Z,50.63
2022-08-19T08:51:59.374Z,51.03
2022-08-19T08:53:07.832Z,50.70
2022-08-19T08:54:13.859Z,54.73
2022-08-19T08:55:21.210Z,50.37
2022-08-19T08:56:24.831Z,46.13
2022-08-19T08:57:33.758Z,42.27
2022-08-19T08:58:59.024Z,37.13
2022-08-19T09:00:05.076Z,47.67
2022-08-19T09:01:12.229Z,39.13
2022-08-19T09:02:14.825Z,41.80
2022-08-19T09:03:21.763Z,41.57
2022-08-19T09:04:25.263Z,44.77
2022-08-19T09:05:42.112Z,42.33
2022-08-19T09:06:56.733Z,34.57
2022-08-19T09:08:06.833Z,37.53
2022-08-19T09:09:15.234Z,41.63
2022-08-19T09:10:32.600Z,30.33
2022-08-19T09:11:47.590Z,45.47
2022-08-19T09:13:01.389Z,40.27
2022-08-19T09:14:29.269Z,43.67
2022-08-19T09:15:40.328Z,32.57
2022-08-19T09:16:41.987Z,49.40
2022-08-19T09:17:45.544Z,32.97
2022-08-19T09:18:54.440Z,36.10
2022-08-19T09:19:59.437Z,32.90
2022-08-19T09:21:05.117Z,27.67
2022-08-19T09:22:08.527Z,36.60
2022-08-19T09:23:14.676Z,33.43
2022-08-19T09:24:16.275Z,30.30
2022-08-19T09:25:24.732Z,30.80
2022-08-19T09:26:47.360Z,31.20
2022-08-19T09:27:52.976Z,28.47
2022-08-19T09:28:55.728Z,36.63
2022-08-19T09:30:01.190Z,29.00
2022-08-19T09:31:03.054Z,40.50
2022-08-19T09:32:06.208Z,33.17
2022-08-19T09:33:28.881Z,35.77
2022-08-19T09:34:38.059Z,32.60
2022-08-19T09:35:50.194Z,39.70
2022-08-19T09:36:56.441Z,32.07
2022-08-19T09:38:00.607Z,25.07
2022-08-19T09:39:04.909Z,30.90
2022-08-19T09:40:20.246Z,40.27
2022-08-19T09:41:24.179Z,34.53
2022-08-19T09:42:30.490Z,36.10
2022-08-19T09:43:44.680Z,34.00
2022-08-19T09:44:50.579Z,35.60
2022-08-19T09:45:53.405Z,29.67
2022-08-19T09:46:57.010Z,36.87
2022-08-19T09:47:58.640Z,36.00
2022-08-19T09:49:07.102Z,37.63
2022-08-19T09:50:12.248Z,40.53
2022-08-19T09:51:24.203Z,33.30
2022-08-19T09:52:26.091Z,31.47
2022-08-19T09:53:35.624Z,32.57
2022-08-19T09:54:40.364Z,27.93
2022-08-19T09:55:46.881Z,30.47
2022-08-19T09:56:48.799Z,27.53
2022-08-19T09:57:51.567Z,26.23
2022-08-19T09:58:53.248Z,28.90
2022-08-19T09:59:56.085Z,27.10
2022-08-19T10:00:59.278Z,25.20
2022-08-19T10:02:03.695Z,28.70
2022-08-19T10:03:12.605Z,30.20
2022-08-19T10:04:20.414Z,28.70
2022-08-19T10:05:42.695Z,27.10
2022-08-19T10:06:46.718Z,24.30
2022-08-19T10:07:49.118Z,30.73
2022-08-19T10:08:53.015Z,23.87
2022-08-19T10:09:56.382Z,24.43
2022-08-19T10:10:59.363Z,23.07
2022-08-19T10:12:06.179Z,32.70
2022-08-19T10:13:08.911Z,24.93
2022-08-19T10:14:11.543Z,25.37
2022-08-19T10:15:13.890Z,31.33
2022-08-19T10:16:19.756Z,23.20
2022-08-19T10:17:26.412Z,29.17
2022-08-19T10:18:30.094Z,28.40
2022-08-19T10:19:36.757Z,25.07
2022-08-19T10:20:39.322Z,24.90
2022-08-19T10:21:41.299Z,22.00
2022-08-19T10:22:44.508Z,33.10
2022-08-19T10:23:49.690Z,22.00
2022-08-19T10:24:53.354Z,26.13
2022-08-19T10:26:00.762Z,25.87
2022-08-19T10:27:04.585Z,26.47
2022-08-19T10:28:10.552Z,24.57
2022-08-19T10:29:13.397Z,23.13
2022-08-19T10:30:34.001Z,31.33
2022-08-19T10:32:00.050Z,20.90
2022-08-19T10:32:59.206Z,21.57
2022-08-19T10:34:02.603Z,25.17
2022-08-19T10:35:08.834Z,22.40
2022-08-19T10:36:15.915Z,18.30
2022-08-19T10:37:23.725Z,19.60
2022-08-19T10:38:33.002Z,19.50
2022-08-19T10:39:43.595Z,22.60
2022-08-19T10:40:46.268Z,20.53
2022-08-19T10:41:49.308Z,17.80
2022-08-19T10:42:51.891Z,19.00
2022-08-19T10:43:55.472Z,19.57
2022-08-19T10:44:58.212Z,20.53
2022-08-19T10:46:00.115Z,23.50
2022-08-19T10:47:03.570Z,20.87
2022-08-19T10:48:05.371Z,22.03
2022-08-19T10:49:08.001Z,20.83
2022-08-19T10:50:28.985Z,23.40
2022-08-19T10:51:50.733Z,15.03
2022-08-19T10:52:52.349Z,14.13
2022-08-19T10:53:59.027Z,20.03
2022-08-19T10:55:19.134Z,16.10
2022-08-19T10:56:39.320Z,15.97
2022-08-19T10:59:05.865Z,17.67
2022-08-19T11:00:08.597Z,12.97
2022-08-19T11:01:15.970Z,13.93
2022-08-19T11:02:18.616Z,18.50
2022-08-19T11:03:20.255Z,18.97
2022-08-19T11:04:23.368Z,19.27
2022-08-19T11:05:31.397Z,16.40
2022-08-19T11:06:44.387Z,17.50
2022-08-19T11:07:46.483Z,14.67
2022-08-19T11:08:49.189Z,14.80
2022-08-19T11:09:55.812Z,17.70
2022-08-19T11:11:03.698Z,18.27
2022-08-19T11:12:06.941Z,16.97
2022-08-19T11:13:09.975Z,13.10
2022-08-19T11:14:15.852Z,17.07
2022-08-19T11:15:17.605Z,17.87
2022-08-19T11:16:22.722Z,18.80
2022-08-19T11:17:24.420Z,19.03
2022-08-19T11:18:27.354Z,18.90
2022-08-19T11:19:28.978Z,17.47
2022-08-19T11:20:32.319Z,20.87
2022-08-19T11:21:41.784Z,17.60
2022-08-19T11:22:43.672Z,15.83
2022-08-19T11:23:48.468Z,16.70
2022-08-19T11:24:50.236Z,15.30
2022-08-19T11:25:54.054Z,18.10
2022-08-19T11:27:03.504Z,44.67
2022-08-19T11:28:06.829Z,31.73
2022-08-19T11:29:12.376Z,20.53
2022-08-19T11:30:16.321Z,15.73
2022-08-19T11:31:20.842Z,19.67
2022-08-19T11:32:23.851Z,14.40
2022-08-19T11:33:27.225Z,14.70
2022-08-19T11:34:30.566Z,13.20
2022-08-19T11:35:33.856Z,18.67
2022-08-19T11:36:39.725Z,16.57
2022-08-19T11:37:41.629Z,13.37
2022-08-19T11:38:44.502Z,13.93
2022-08-19T11:39:51.357Z,13.23
2022-08-19T11:40:57.230Z,14.13
2022-08-19T11:42:00.928Z,13.57
2022-08-19T11:43:02.531Z,16.80
2022-08-19T11:44:05.719Z,13.10
2022-08-19T11:45:10.022Z,11.90
2022-08-19T11:46:16.244Z,18.33
2022-08-19T11:47:18.038Z,14.07
2022-08-19T11:48:23.294Z,14.70
2022-08-19T11:49:25.031Z,13.40
2022-08-19T11:50:27.645Z,13.87
2022-08-19T11:51:30.673Z,15.67
2022-08-19T11:52:33.251Z,11.70
2022-08-19T11:53:35.817Z,14.00
2022-08-19T11:54:38.519Z,12.27
2022-08-19T11:55:43.384Z,14.37
2022-08-19T11:56:48.655Z,15.70
2022-08-19T11:57:50.568Z,13.23
2022-08-19T11:58:54.150Z,11.37
2022-08-19T11:59:55.893Z,11.20
2022-08-19T12:01:00.247Z,11.70
2022-08-19T12:02:02.006Z,15.33
2022-08-19T12:03:04.832Z,15.63
2022-08-19T12:04:06.583Z,13.37
2022-08-19T12:05:12.631Z,10.90
2022-08-19T12:06:17.594Z,14.63
2022-08-19T12:07:20.228Z,12.13
2022-08-19T12:08:21.804Z,17.73
2022-08-19T12:09:24.375Z,13.10
2022-08-19T12:10:26.643Z,14.80
2022-08-19T12:11:29.313Z,14.00
2022-08-19T12:12:38.848Z,18.13
2022-08-19T12:13:45.184Z,19.60
2022-08-19T12:14:48.423Z,15.33
2022-08-19T12:15:50.834Z,12.07
2022-08-19T12:16:55.169Z,11.60
2022-08-19T12:17:58.016Z,12.83
2022-08-19T12:19:04.617Z,11.23
2022-08-19T12:20:07.794Z,12.53
2022-08-19T12:21:11.867Z,13.53
2022-08-19T12:22:13.509Z,11.70
2022-08-19T12:23:16.089Z,15.30
2022-08-19T12:24:23.786Z,13.13
2022-08-19T12:25:26.430Z,14.80
2022-08-19T12:26:29.603Z,14.17
2022-08-19T12:27:40.158Z,12.20
2022-08-19T12:28:44.650Z,13.63
2022-08-19T12:29:47.244Z,12.53
2022-08-19T12:30:50.957Z,10.87
2022-08-19T12:31:55.108Z,10.83
2022-08-19T12:32:56.696Z,12.03
2022-08-19T12:34:01.656Z,13.77
2022-08-19T12:35:07.667Z,12.50
2022-08-19T12:36:12.562Z,10.67
2022-08-19T12:37:15.649Z,13.50
2022-08-19T12:38:17.316Z,11.07
2022-08-19T12:39:19.963Z,41.17
2022-08-19T12:40:21.982Z,30.77
2022-08-19T12:41:24.933Z,22.83
2022-08-19T12:42:26.660Z,25.03
2022-08-19T12:43:31.234Z,14.10
2022-08-19T12:44:33.777Z,10.30
2022-08-19T12:45:37.136Z,12.67
2022-08-19T12:46:39.292Z,17.33
2022-08-19T12:47:45.380Z,8.77
2022-08-19T12:48:51.084Z,9.80
2022-08-19T12:49:57.400Z,11.10
2022-08-19T12:50:59.081Z,8.70
2022-08-19T12:52:02.292Z,9.10
2022-08-19T12:53:04.887Z,11.93
2022-08-19T12:54:07.455Z,9.30
2022-08-19T12:55:11.511Z,7.33
2022-08-19T12:56:15.246Z,9.40
2022-08-19T12:57:17.821Z,10.70
2022-08-19T12:58:19.493Z,10.37
2022-08-19T12:59:23.153Z,8.90
2022-08-19T13:00:24.779Z,11.90
2022-08-19T13:01:28.666Z,10.10
2022-08-19T13:02:38.586Z,11.40
2022-08-19T13:03:43.959Z,10.47
2022-08-19T13:04:45.591Z,12.30
2022-08-19T13:05:48.300Z,15.30
2022-08-19T13:06:51.283Z,9.67
2022-08-19T13:07:56.850Z,11.37
2022-08-19T13:08:59.859Z,8.00
2022-08-19T13:10:01.808Z,9.90
2022-08-19T13:11:11.828Z,7.93
2022-08-19T13:12:14.289Z,9.07
2022-08-19T13:13:17.175Z,10.83
2022-08-19T13:14:19.827Z,7.60
2022-08-19T13:15:24.381Z,7.53
2022-08-19T13:16:28.409Z,7.97
2022-08-19T13:17:31.119Z,7.50
2022-08-19T13:18:32.956Z,7.60
2022-08-19T13:19:38.543Z,10.70
2022-08-19T13:20:41.633Z,7.40
2022-08-19T13:21:45.015Z,11.33
2022-08-19T13:22:49.226Z,8.23
2022-08-19T13:23:52.734Z,7.73
2022-08-19T13:24:54.424Z,11.37
2022-08-19T13:26:00.868Z,8.57
2022-08-19T13:27:02.476Z,13.43
2022-08-19T13:28:07.319Z,8.80
2022-08-19T13:29:36.113Z,7.70
2022-08-19T13:30:57.053Z,11.07
2022-08-19T13:32:18.540Z,8.17
2022-08-19T13:33:21.586Z,10.83
2022-08-19T13:34:30.757Z,6.97
2022-08-19T13:35:35.258Z,9.03
2022-08-19T13:36:37.820Z,6.87
2022-08-19T13:37:45.250Z,8.77
2022-08-19T13:38:47.923Z,5.97
2022-08-19T13:39:50.875Z,9.50
2022-08-19T13:40:56.115Z,6.60
2022-08-19T13:41:58.321Z,8.20
2022-08-19T13:43:02.509Z,12.80
2022-08-19T13:44:20.091Z,11.30
2022-08-19T13:45:26.035Z,10.17
2022-08-19T13:46:28.213Z,19.53
2022-08-19T13:47:30.945Z,9.20
2022-08-19T13:48:33.547Z,7.00
2022-08-19T13:49:37.078Z,7.73
2022-08-19T13:50:44.148Z,6.03
2022-08-19T13:51:47.284Z,7.57
2022-08-19T13:52:50.403Z,6.83
2022-08-19T13:53:52.420Z,6.20
2022-08-19T13:54:55.228Z,6.67
2022-08-19T13:55:58.300Z,6.60
2022-08-19T13:56:59.960Z,6.50
2022-08-19T13:58:03.692Z,6.40
2022-08-19T13:59:05.345Z,6.20
2022-08-19T14:00:11.113Z,6.30
2022-08-19T14:01:21.398Z,5.40
2022-08-19T14:02:27.277Z,8.73
2022-08-19T14:03:29.995Z,5.63
2022-08-19T14:04:31.625Z,10.23
2022-08-19T14:05:34.497Z,9.23
2022-08-19T14:06:37.532Z,11.80